createdAt,value
2023-02-09T00:04:35.404Z,6.93
2023-02-09T00:09:38.799Z,5.23
2023-02-09T00:14:42.229Z,5.33
2023-02-09T00:19:46.781Z,4.30
2023-02-09T00:24:50.002Z,5.70
2023-02-09T00:29:53.196Z,5.77
2023-02-09T00:34:57.686Z,5.40
2023-02-09T00:40:00.932Z,5.80
2023-02-09T00:45:04.062Z,5.00
2023-02-09T00:50:09.338Z,4.10
2023-02-09T00:55:12.506Z,3.90
2023-02-09T01:00:18.098Z,10.10
2023-02-09T01:05:22.633Z,6.93
2023-02-09T01:10:25.969Z,6.70
2023-02-09T01:15:29.099Z,7.10
2023-02-09T01:20:33.714Z,5.73
2023-02-09T01:25:36.868Z,4.83
2023-02-09T01:30:40.204Z,3.80
2023-02-09T01:35:44.844Z,7.03
2023-02-09T01:40:49.422Z,4.63
2023-02-09T01:45:54.826Z,4.70
2023-02-09T01:51:01.535Z,4.90
2023-02-09T01:56:09.368Z,4.27
2023-02-09T02:01:13.271Z,4.50
2023-02-09T02:06:19.562Z,3.93
2023-02-09T02:11:25.213Z,3.10
2023-02-09T02:16:42.758Z,4.30
2023-02-09T02:22:23.117Z,4.00
2023-02-09T02:27:33.297Z,3.80
2023-02-09T02:32:53.962Z,4.27
2023-02-09T02:38:04.361Z,3.10
2023-02-09T02:43:15.112Z,4.00
2023-02-09T02:48:28.602Z,3.50
2023-02-09T02:53:35.261Z,3.37
2023-02-09T02:58:42.109Z,4.00
2023-02-09T03:03:48.436Z,3.23
2023-02-09T03:08:54.374Z,3.20
2023-02-09T03:49:49.859Z,2.67
2023-02-09T03:54:53.027Z,3.27
2023-02-09T03:59:56.195Z,3.30
2023-02-09T04:05:00.823Z,3.53
2023-02-09T04:10:05.541Z,2.90
2023-02-09T04:15:09.405Z,3.00
2023-02-09T04:20:14.223Z,2.97
2023-02-09T04:25:17.638Z,3.13
2023-02-09T04:30:21.341Z,3.00
2023-02-09T04:35:25.984Z,3.23
2023-02-09T04:40:29.371Z,3.30
2023-02-09T04:45:32.611Z,2.63
2023-02-09T04:50:37.142Z,3.80
2023-02-09T04:55:40.822Z,2.90
2023-02-09T05:00:44.465Z,3.70
2023-02-09T05:05:49.525Z,3.90
2023-02-09T05:10:53.620Z,3.40
2023-02-09T05:16:21.324Z,4.67
2023-02-09T05:21:26.369Z,5.13
2023-02-09T05:33:41.660Z,3.53
2023-02-09T05:38:46.199Z,3.93
2023-02-09T05:43:49.340Z,4.40
2023-02-09T05:48:52.491Z,3.73
2023-02-09T05:53:57.212Z,4.87
2023-02-09T05:59:01.735Z,4.07
2023-02-09T06:04:06.615Z,3.90
2023-02-09T06:09:11.654Z,4.40
2023-02-09T06:14:15.335Z,3.90
2023-02-09T06:19:20.649Z,3.73
2023-02-09T06:24:25.334Z,3.43
2023-02-09T06:29:28.693Z,3.80
2023-02-09T06:34:31.956Z,4.13
2023-02-09T06:39:36.522Z,4.23
2023-02-09T06:44:39.700Z,4.00
2023-02-09T06:49:42.910Z,4.20
2023-02-09T06:54:47.499Z,4.37
2023-02-09T06:59:50.691Z,3.53
2023-02-09T07:04:53.884Z,3.87
2023-02-09T07:09:58.707Z,3.60
2023-02-09T07:15:02.145Z,3.90
2023-02-09T07:20:06.455Z,3.70
2023-02-09T07:25:11.154Z,3.50
2023-02-09T07:30:15.416Z,3.37
2023-02-09T07:35:18.765Z,3.77
2023-02-09T07:40:23.432Z,3.20
2023-02-09T07:45:26.880Z,3.47
2023-02-09T07:50:30.133Z,4.57
2023-02-09T07:55:34.894Z,4.20
2023-02-09T08:00:38.457Z,4.07
2023-02-09T08:05:47.207Z,5.00
2023-02-09T08:10:52.746Z,4.20
2023-02-09T08:15:59.256Z,4.50
2023-02-09T08:21:02.627Z,4.87
2023-02-09T08:26:11.163Z,4.60
2023-02-09T08:31:16.149Z,5.10
2023-02-09T08:36:21.011Z,4.03
2023-02-09T08:41:25.786Z,5.67
2023-02-09T08:46:29.124Z,4.50
2023-02-09T08:51:32.388Z,12.23
2023-02-09T08:56:37.125Z,11.17
2023-02-09T09:01:40.640Z,10.67
2023-02-09T09:06:44.017Z,4.40
2023-02-09T09:11:48.619Z,4.57
2023-02-09T09:16:51.849Z,3.30
2023-02-09T09:21:55.077Z,2.93
2023-02-09T09:26:59.803Z,2.63
2023-02-09T09:32:03.345Z,3.77
2023-02-09T09:37:06.808Z,4.23
2023-02-09T09:42:24.253Z,3.20
2023-02-09T09:47:36.123Z,3.37
2023-02-09T09:52:43.744Z,3.30
2023-02-09T09:57:48.584Z,3.30
2023-02-09T10:02:52.002Z,2.83
2023-02-09T10:08:01.079Z,2.80
2023-02-09T10:13:15.870Z,3.07
2023-02-09T10:18:25.239Z,3.13
2023-02-09T10:23:37.607Z,3.03
2023-02-09T10:28:44.735Z,3.13
2023-02-09T10:33:55.325Z,3.70
2023-02-09T10:39:18.226Z,3.57
2023-02-09T10:44:25.883Z,3.70
2023-02-09T10:49:35.449Z,3.37
2023-02-09T10:54:43.225Z,3.73
2023-02-09T10:59:52.562Z,2.90
2023-02-09T11:04:55.782Z,3.87
2023-02-09T11:10:01.035Z,3.57
2023-02-09T11:15:13.680Z,3.53
2023-02-09T11:20:28.855Z,3.30
2023-02-09T11:25:38.389Z,3.83
2023-02-09T11:31:03.976Z,3.20
2023-02-09T11:36:20.305Z,3.10
2023-02-09T11:41:47.772Z,3.00
2023-02-09T11:47:05.429Z,3.33
2023-02-09T11:52:10.269Z,2.70
2023-02-09T11:57:19.597Z,3.37
2023-02-09T12:02:40.024Z,2.93
2023-02-09T12:07:50.024Z,2.80
2023-02-09T12:12:59.101Z,3.43
2023-02-09T12:18:07.217Z,3.20
2023-02-09T12:23:19.732Z,3.63
2023-02-09T12:28:45.749Z,2.90
2023-02-09T12:34:13.909Z,2.80
2023-02-09T12:39:26.020Z,2.90
2023-02-09T12:44:38.899Z,2.50
2023-02-09T12:49:45.183Z,2.53
2023-02-09T12:54:54.833Z,2.70
2023-02-09T13:00:32.425Z,2.73
2023-02-09T13:05:43.158Z,2.90
2023-02-09T13:10:55.503Z,2.67
2023-02-09T13:16:18.209Z,2.70
2023-02-09T13:21:33.850Z,2.90
2023-02-09T13:26:38.963Z,2.70
2023-02-09T13:31:43.927Z,2.70
2023-02-09T13:36:56.726Z,2.90
2023-02-09T13:42:00.081Z,3.57
2023-02-09T13:47:07.860Z,3.30
2023-02-09T13:52:15.419Z,3.30
2023-02-09T13:57:31.865Z,3.20
2023-02-09T14:02:36.596Z,4.03
2023-02-09T14:07:41.655Z,3.63
2023-02-09T14:12:55.684Z,3.57
2023-02-09T14:17:59.353Z,3.80
2023-02-09T14:23:04.070Z,3.30
2023-02-09T14:28:07.315Z,3.50
2023-02-09T14:33:25.388Z,3.80
2023-02-09T14:38:42.653Z,4.77
2023-02-09T14:43:46.060Z,3.50
2023-02-09T14:48:49.596Z,3.57
2023-02-09T14:53:54.977Z,3.67
2023-02-09T14:58:58.399Z,3.53
2023-02-09T15:04:01.575Z,4.10
2023-02-09T15:09:06.506Z,4.03
2023-02-09T15:14:12.381Z,4.33
2023-02-09T15:19:20.321Z,3.70
2023-02-09T15:24:24.961Z,4.00
2023-02-09T15:29:28.269Z,4.77
2023-02-09T15:34:31.648Z,2.90
2023-02-09T15:39:36.584Z,3.50
2023-02-09T15:44:56.982Z,4.30
2023-02-09T15:50:00.240Z,3.53
2023-02-09T15:55:05.360Z,3.47
2023-02-09T16:00:15.791Z,3.37
2023-02-09T16:05:19.119Z,5.60
2023-02-09T16:10:27.230Z,4.13
2023-02-09T16:15:30.544Z,4.93
2023-02-09T16:20:33.981Z,3.80
2023-02-09T16:25:38.560Z,5.00
2023-02-09T16:30:51.165Z,5.40
2023-02-09T16:35:57.877Z,7.10
2023-02-09T16:41:02.413Z,9.97
2023-02-09T16:46:06.294Z,5.97
2023-02-09T16:51:14.430Z,5.77
2023-02-09T16:56:19.967Z,4.70
2023-02-09T17:01:24.948Z,7.20
2023-02-09T17:06:31.218Z,7.10
2023-02-09T17:11:36.101Z,8.90
2023-02-09T17:16:43.451Z,7.50
2023-02-09T17:21:46.772Z,9.43
2023-02-09T17:26:51.422Z,7.90
2023-02-09T17:31:54.785Z,5.47
2023-02-09T17:36:58.546Z,7.40
2023-02-09T17:42:03.307Z,4.67
2023-02-09T17:47:06.593Z,9.13
2023-02-09T17:52:16.495Z,8.73
2023-02-09T17:57:22.208Z,7.90
2023-02-09T18:02:25.910Z,7.47
2023-02-09T18:07:29.522Z,6.53
2023-02-09T18:12:34.160Z,6.90
2023-02-09T18:17:40.160Z,5.57
2023-02-09T18:22:44.786Z,6.10
2023-02-09T18:27:51.414Z,6.63
2023-02-09T18:32:54.890Z,7.97
2023-02-09T18:37:58.298Z,6.73
2023-02-09T18:43:04.674Z,6.50
2023-02-09T18:48:08.101Z,7.60
2023-02-09T18:53:12.833Z,8.17
2023-02-09T18:58:17.545Z,7.20
2023-02-09T19:03:21.392Z,5.40
2023-02-09T19:08:25.328Z,6.20
2023-02-09T19:13:33.847Z,6.00
2023-02-09T19:18:38.663Z,6.13
2023-02-09T19:23:42.318Z,5.07
2023-02-09T19:28:48.459Z,5.60
2023-02-09T19:33:56.490Z,5.67
2023-02-09T19:39:00.810Z,5.03
2023-02-09T19:44:06.401Z,5.37
2023-02-09T19:49:10.105Z,4.17
2023-02-09T19:54:13.546Z,5.13
2023-02-09T19:59:19.546Z,6.60
2023-02-09T20:04:23.593Z,5.90
2023-02-09T20:09:27.210Z,5.67
2023-02-09T20:14:33.588Z,5.80
2023-02-09T20:19:38.231Z,5.57
2023-02-09T20:24:42.915Z,5.63
2023-02-09T20:29:48.251Z,5.60
2023-02-09T20:34:52.832Z,5.97
2023-02-09T20:39:56.969Z,4.90
2023-02-09T20:45:19.041Z,6.10
2023-02-09T20:50:22.429Z,4.97
2023-02-09T20:55:25.725Z,6.40
2023-02-09T21:00:30.703Z,5.57
2023-02-09T21:05:34.117Z,6.60
2023-02-09T21:10:38.631Z,6.20
2023-02-09T21:15:43.349Z,6.23
2023-02-09T21:20:46.791Z,5.20
2023-02-09T21:25:50.060Z,6.37
2023-02-09T21:30:55.011Z,6.80
2023-02-09T21:35:59.585Z,6.60
2023-02-09T21:41:02.796Z,7.10
2023-02-09T21:46:07.498Z,6.40
2023-02-09T21:51:10.912Z,6.50
2023-02-09T21:56:14.429Z,7.13
2023-02-09T22:01:19.351Z,5.80
2023-02-09T22:06:22.693Z,6.53
2023-02-09T22:11:26.120Z,7.10
2023-02-09T22:16:31.036Z,5.67
2023-02-09T22:21:34.210Z,6.47
2023-02-09T22:26:39.594Z,6.30
2023-02-09T22:31:44.772Z,7.07
2023-02-09T22:36:51.675Z,6.70
2023-02-09T22:41:58.118Z,6.70
2023-02-09T22:47:02.860Z,7.17
2023-02-09T22:52:06.327Z,7.30
2023-02-09T22:57:09.755Z,6.47
2023-02-09T23:02:15.712Z,7.80
2023-02-09T23:07:19.034Z,7.43
2023-02-09T23:12:22.521Z,7.60
2023-02-09T23:17:27.210Z,7.80
2023-02-09T23:22:30.350Z,6.70
2023-02-09T23:27:33.464Z,7.73
2023-02-09T23:32:38.005Z,7.60
2023-02-09T23:37:41.192Z,7.33
2023-02-09T23:42:44.362Z,8.07
2023-02-09T23:47:49.104Z,7.43
2023-02-09T23:52:52.267Z,6.30
2023-02-09T23:57:55.627Z,7.33
